Time;durP1;ratioP1;P1;durP2;ratioP2;P2;SDS_P1;SDS_P2;PMS_P1;PMS_P2;Temp;Humidity;BMP_temperature;BMP_pressure;BME280_temperature;BME280_humidity;BME280_pressure;Samples;Min_cycle;Max_cycle;Signal;HPM_P1;HPM_P2
2023/05/05 04:02:33;;;;;;;0.93;0.93;;;8.40;99.90;;;;;;5054683;23;20537;-73
2023/05/05 04:05:00;;;;;;;1.33;0.88;;;8.50;99.90;;;;;;5011146;28;20202;-72
2023/05/05 04:07:26;;;;;;;3.92;1.25;;;8.50;99.90;;;;;;5012060;28;20269;-72
2023/05/05 04:09:53;;;;;;;1.55;1.45;;;8.50;99.90;;;;;;5011583;28;20207;-72
2023/05/05 04:12:20;;;;;;;1.85;1.48;;;8.50;99.90;;;;;;5011964;28;20258;-73
2023/05/05 04:14:46;;;;;;;0.88;0.88;;;8.50;99.90;;;;;;5019842;23;20236;-73
2023/05/05 04:17:13;;;;;;;0.98;0.98;;;8.60;99.90;;;;;;4993707;28;20840;-73
2023/05/05 04:19:41;;;;;;;2.65;0.80;;;8.50;99.90;;;;;;4992780;28;20215;-73
2023/05/05 04:22:08;;;;;;;1.48;1.38;;;8.50;99.90;;;;;;4993268;28;20668;-73
2023/05/05 04:24:35;;;;;;;0.50;0.50;;;8.60;99.90;;;;;;4992145;28;20230;-73
2023/05/05 04:27:02;;;;;;;1.30;1.30;;;8.60;99.90;;;;;;4993192;28;20212;-72
2023/05/05 04:29:28;;;;;;;1.75;1.65;;;8.60;99.90;;;;;;4992174;28;20219;-72
2023/05/05 04:31:55;;;;;;;0.57;0.57;;;8.70;99.90;;;;;;4993211;28;20326;-73
2023/05/05 04:34:22;;;;;;;0.75;0.75;;;8.70;99.90;;;;;;4994545;28;20227;-74
2023/05/05 04:36:50;;;;;;;1.77;1.73;;;8.70;99.90;;;;;;4995640;28;20215;-74
2023/05/05 04:39:17;;;;;;;1.35;1.35;;;8.70;99.90;;;;;;4993972;28;20199;-74
2023/05/05 04:41:44;;;;;;;0.85;0.85;;;8.80;99.90;;;;;;4993839;28;20298;-73
2023/05/05 04:44:11;;;;;;;1.42;1.30;;;8.90;99.90;;;;;;4992933;28;20247;-74
2023/05/05 04:46:37;;;;;;;0.70;0.70;;;9.10;99.90;;;;;;4994654;28;20538;-75
2023/05/05 04:49:05;;;;;;;1.88;1.73;;;9.30;99.90;;;;;;4994412;28;20241;-72
2023/05/05 04:51:32;;;;;;;2.40;2.20;;;9.70;99.90;;;;;;4994461;28;20258;-73
2023/05/05 04:54:00;;;;;;;0.82;0.82;;;10.10;99.90;;;;;;4992754;28;20231;-72
2023/05/05 04:56:26;;;;;;;2.92;1.00;;;10.50;99.90;;;;;;4994545;28;20208;-72
2023/05/05 04:58:53;;;;;;;1.37;0.97;;;10.90;99.90;;;;;;4998015;28;20279;-73
2023/05/05 05:01:20;;;;;;;0.70;0.70;;;11.40;99.90;;;;;;5005467;28;20462;-73
2023/05/05 05:03:47;;;;;;;1.13;1.13;;;11.70;99.90;;;;;;5024017;28;20477;-72
2023/05/05 05:06:14;;;;;;;3.00;0.97;;;12.00;99.90;;;;;;5025246;28;20534;-74
2023/05/05 05:08:41;;;;;;;0.87;0.87;;;11.80;99.90;;;;;;5022101;28;20482;-74
2023/05/05 05:11:09;;;;;;;5.10;1.13;;;11.60;99.90;;;;;;5017211;28;20553;-74
2023/05/05 05:13:35;;;;;;;1.13;1.13;;;11.40;99.90;;;;;;5014620;28;20781;-73
2023/05/05 05:16:03;;;;;;;2.00;1.27;;;11.20;99.90;;;;;;5012472;28;20466;-74
2023/05/05 05:18:29;;;;;;;0.68;0.68;;;11.10;99.90;;;;;;5011894;28;20462;-74
2023/05/05 05:20:57;;;;;;;0.75;0.70;;;11.00;99.90;;;;;;5011688;28;20271;-74
2023/05/05 05:23:23;;;;;;;2.67;1.10;;;10.90;99.90;;;;;;5010793;28;20229;-72
2023/05/05 05:25:50;;;;;;;1.88;1.75;;;10.80;99.90;;;;;;5011115;28;20582;-74
2023/05/05 05:28:18;;;;;;;2.38;1.20;;;10.80;99.90;;;;;;5010881;28;20345;-73
2023/05/05 05:30:45;;;;;;;1.02;1.02;;;10.80;99.90;;;;;;5011042;28;20583;-73
2023/05/05 05:33:12;;;;;;;1.00;1.00;;;10.70;99.90;;;;;;5011209;28;20234;-72
2023/05/05 05:35:38;;;;;;;1.17;0.93;;;10.70;99.90;;;;;;5010706;28;20600;-73
2023/05/05 05:38:05;;;;;;;1.15;0.90;;;10.60;99.90;;;;;;5010928;28;20679;-73
2023/05/05 05:40:32;;;;;;;1.45;1.08;;;10.60;99.90;;;;;;5010878;28;20203;-73
2023/05/05 05:42:59;;;;;;;1.42;1.42;;;10.60;99.90;;;;;;5010909;28;20210;-72
2023/05/05 05:45:27;;;;;;;0.75;0.75;;;10.60;99.90;;;;;;5010960;28;20258;-73
2023/05/05 05:47:54;;;;;;;1.60;1.50;;;10.60;99.90;;;;;;5011513;28;20203;-73
2023/05/05 05:50:21;;;;;;;1.50;1.40;;;10.60;99.90;;;;;;5010719;28;20214;-74
2023/05/05 05:52:48;;;;;;;2.90;1.80;;;10.60;99.90;;;;;;5010902;28;20211;-72
2023/05/05 05:55:14;;;;;;;3.03;1.92;;;10.70;99.90;;;;;;5009539;28;20223;-73
2023/05/05 05:57:41;;;;;;;4.68;1.15;;;10.70;99.90;;;;;;5013692;28;20675;-73
2023/05/05 06:00:09;;;;;;;1.70;1.60;;;10.80;99.90;;;;;;5014396;28;20294;-73
2023/05/05 06:02:37;;;;;;;1.98;1.50;;;11.20;99.90;;;;;;5012786;28;20207;-73
2023/05/05 06:05:04;;;;;;;1.53;1.53;;;11.80;99.90;;;;;;5013388;28;20249;-73
2023/05/05 06:07:31;;;;;;;2.03;1.93;;;12.40;99.90;;;;;;5014263;28;20461;-73
2023/05/05 06:09:57;;;;;;;7.07;1.50;;;13.10;99.90;;;;;;5013559;28;20801;-74
2023/05/05 06:12:24;;;;;;;3.40;1.43;;;13.70;99.90;;;;;;5014114;28;20473;-72
2023/05/05 06:14:51;;;;;;;2.57;2.50;;;14.30;99.90;;;;;;5012770;28;20496;-74
2023/05/05 06:17:17;;;;;;;2.23;2.07;;;14.70;99.90;;;;;;5014240;28;20804;-74
2023/05/05 06:19:46;;;;;;;2.40;1.43;;;15.10;99.90;;;;;;5013977;28;20473;-74
2023/05/05 06:22:12;;;;;;;1.20;1.20;;;15.40;99.90;;;;;;5014256;28;20474;-74
2023/05/05 06:24:39;;;;;;;1.70;1.60;;;15.00;99.90;;;;;;5012449;28;21023;-74
2023/05/05 06:27:06;;;;;;;1.20;1.20;;;14.50;99.90;;;;;;5013850;28;20470;-74
2023/05/05 06:29:32;;;;;;;1.40;1.40;;;14.00;99.90;;;;;;5013194;28;20799;-74
2023/05/05 06:32:00;;;;;;;0.97;0.97;;;13.60;99.90;;;;;;5014473;28;20465;-74
2023/05/05 06:34:26;;;;;;;1.20;1.20;;;13.40;99.90;;;;;;5013423;28;20489;-74
2023/05/05 06:36:54;;;;;;;1.67;1.50;;;13.40;99.90;;;;;;5014215;28;20507;-73
2023/05/05 06:39:21;;;;;;;1.30;1.30;;;13.20;99.90;;;;;;5013755;28;20473;-74
2023/05/05 06:41:48;;;;;;;1.60;1.50;;;13.30;99.90;;;;;;5014554;28;20465;-74
2023/05/05 06:44:15;;;;;;;1.77;1.77;;;13.90;99.90;;;;;;5012595;28;20493;-74
2023/05/05 06:46:42;;;;;;;1.23;1.23;;;14.20;99.90;;;;;;5013878;28;20833;-75
2023/05/05 06:49:09;;;;;;;0.87;0.87;;;14.70;99.90;;;;;;5013672;28;20462;-73
2023/05/05 06:51:36;;;;;;;4.37;1.47;;;15.40;99.90;;;;;;5013947;28;20462;-74
2023/05/05 06:54:04;;;;;;;1.23;1.20;;;15.90;99.90;;;;;;5013819;28;20492;-74
2023/05/05 06:56:31;;;;;;;3.37;1.63;;;16.10;99.90;;;;;;5013190;28;20489;-74
2023/05/05 06:58:57;;;;;;;2.80;1.73;;;16.30;99.90;;;;;;5013596;28;20481;-73
2023/05/05 07:01:24;;;;;;;3.10;1.43;;;16.20;99.90;;;;;;5012394;28;20822;-74
2023/05/05 07:03:52;;;;;;;2.13;2.03;;;16.40;99.90;;;;;;4995283;28;20494;-74
2023/05/05 07:06:19;;;;;;;1.00;1.00;;;16.80;99.90;;;;;;4993773;28;20585;-76
2023/05/05 07:08:46;;;;;;;1.50;1.40;;;17.00;99.90;;;;;;4993148;28;20462;-76
2023/05/05 07:11:14;;;;;;;1.47;1.47;;;17.40;99.90;;;;;;4993234;28;20469;-74
2023/05/05 07:13:40;;;;;;;2.97;1.37;;;17.50;99.90;;;;;;4993047;28;20495;-74
2023/05/05 07:16:08;;;;;;;1.60;1.60;;;17.10;99.90;;;;;;4995078;28;20606;-75
2023/05/05 07:18:34;;;;;;;1.57;1.57;;;16.40;99.90;;;;;;4995182;28;20462;-74
2023/05/05 07:21:01;;;;;;;1.47;1.40;;;16.00;99.90;;;;;;4994976;28;20463;-74
2023/05/05 07:23:28;;;;;;;1.43;1.43;;;15.70;99.90;;;;;;4994689;28;20493;-73
2023/05/05 07:25:55;;;;;;;6.20;2.17;;;15.60;99.90;;;;;;4994581;28;20470;-75
2023/05/05 07:28:23;;;;;;;1.20;1.20;;;15.50;99.90;;;;;;4993267;28;20467;-73
2023/05/05 07:30:50;;;;;;;1.57;1.47;;;15.60;99.90;;;;;;4993264;28;20955;-73
2023/05/05 07:33:18;;;;;;;7.70;2.10;;;15.50;99.90;;;;;;4992607;28;20492;-72
2023/05/05 07:35:44;;;;;;;1.63;1.53;;;15.40;99.90;;;;;;4993253;28;20545;-72
2023/05/05 07:38:11;;;;;;;2.30;1.93;;;15.30;99.90;;;;;;4993160;28;20501;-73
2023/05/05 07:40:38;;;;;;;1.70;1.43;;;15.20;99.90;;;;;;4992652;28;20470;-73
2023/05/05 07:43:05;;;;;;;2.87;1.47;;;15.10;99.90;;;;;;4992646;28;20462;-73
2023/05/05 07:45:33;;;;;;;2.30;1.77;;;15.00;99.90;;;;;;4992275;28;20469;-73
2023/05/05 07:47:59;;;;;;;1.30;1.30;;;15.00;99.90;;;;;;4993427;28;20469;-73
2023/05/05 07:50:26;;;;;;;2.63;1.90;;;15.10;99.90;;;;;;4993117;28;20490;-73
2023/05/05 07:52:53;;;;;;;1.80;1.70;;;15.10;99.90;;;;;;4993043;28;20470;-73
2023/05/05 07:55:20;;;;;;;2.40;1.87;;;15.00;99.90;;;;;;4992141;28;20495;-72
2023/05/05 07:57:48;;;;;;;3.43;2.13;;;14.90;99.90;;;;;;4992909;28;20466;-73
2023/05/05 08:00:18;;;;;;;1.80;1.80;;;14.80;99.90;;;;;;4993055;28;20550;-74
2023/05/05 08:02:46;;;;;;;1.70;1.60;;;14.80;99.90;;;;;;4999395;28;20537;-74
2023/05/05 08:05:13;;;;;;;0.90;0.90;;;14.90;99.90;;;;;;4992627;28;20494;-73
2023/05/05 08:07:40;;;;;;;2.20;2.20;;;14.90;99.90;;;;;;4993274;28;20474;-74
2023/05/05 08:10:08;;;;;;;1.17;1.03;;;14.90;99.90;;;;;;4991893;28;20567;-73
2023/05/05 08:12:35;;;;;;;3.13;2.53;;;15.00;99.90;;;;;;4992315;28;20460;-73
2023/05/05 08:15:02;;;;;;;1.30;1.17;;;14.90;99.90;;;;;;4991588;28;20486;-74
2023/05/05 08:17:29;;;;;;;4.23;1.70;;;14.90;99.90;;;;;;4992431;28;20780;-73
2023/05/05 08:19:57;;;;;;;2.40;1.80;;;14.90;99.90;;;;;;4992142;28;20563;-74
2023/05/05 08:22:25;;;;;;;1.63;1.57;;;14.90;99.90;;;;;;4992135;28;20463;-75
2023/05/05 08:24:51;;;;;;;1.50;1.40;;;14.90;99.90;;;;;;4991334;28;20483;-74
2023/05/05 08:27:18;;;;;;;1.80;1.47;;;15.00;99.90;;;;;;4992284;28;20463;-74
2023/05/05 08:29:45;;;;;;;2.37;1.40;;;15.00;99.90;;;;;;4991849;28;20462;-75
2023/05/05 08:32:11;;;;;;;1.63;1.53;;;15.10;99.90;;;;;;4992517;28;20466;-73
2023/05/05 08:34:38;;;;;;;4.93;2.30;;;15.20;99.90;;;;;;4991511;28;20854;-74
2023/05/05 08:37:06;;;;;;;1.60;1.50;;;15.30;99.90;;;;;;4992563;28;20463;-74
2023/05/05 08:39:33;;;;;;;2.43;1.60;;;15.40;99.90;;;;;;5003700;28;20459;-74
2023/05/05 08:42:01;;;;;;;1.80;1.57;;;15.50;99.90;;;;;;4994514;28;20462;-74
2023/05/05 08:44:28;;;;;;;1.90;1.90;;;15.60;99.90;;;;;;4991219;28;20490;-74
2023/05/05 08:46:55;;;;;;;0.90;0.90;;;15.70;99.90;;;;;;4993722;28;20466;-74
2023/05/05 08:49:22;;;;;;;4.33;2.30;;;15.70;99.90;;;;;;4991894;28;20470;-74
2023/05/05 08:51:50;;;;;;;0.87;0.87;;;15.70;99.90;;;;;;4991885;28;20467;-72
2023/05/05 08:54:22;;;;;;;1.30;1.30;;;15.70;99.90;;;;;;4990643;28;20495;-74
2023/05/05 08:56:51;;;;;;;0.77;0.77;;;15.70;99.90;;;;;;4991530;28;20497;-74
2023/05/05 08:59:23;;;;;;;0.67;0.67;;;15.80;99.90;;;;;;4991057;28;20481;-74
2023/05/05 09:01:50;;;;;;;1.27;1.27;;;15.90;99.90;;;;;;4990271;28;20956;-74
2023/05/05 09:04:18;;;;;;;0.83;0.83;;;15.80;99.90;;;;;;5003378;28;20482;-76
2023/05/05 09:06:44;;;;;;;1.40;1.30;;;15.90;99.90;;;;;;5011132;28;20524;-74
2023/05/05 09:09:12;;;;;;;1.27;1.17;;;16.00;99.90;;;;;;5010681;28;20470;-73
2023/05/05 09:11:41;;;;;;;1.70;1.70;;;16.20;99.90;;;;;;5011627;28;20465;-74
2023/05/05 09:14:08;;;;;;;1.33;1.33;;;16.20;99.90;;;;;;5010146;28;20497;-72
2023/05/05 09:16:34;;;;;;;3.03;2.90;;;16.30;99.90;;;;;;5010795;28;20494;-74
2023/05/05 09:19:02;;;;;;;3.07;1.50;;;16.40;99.90;;;;;;5010719;28;20904;-73
2023/05/05 09:21:29;;;;;;;1.30;1.30;;;16.40;99.90;;;;;;5010574;28;20515;-72
2023/05/05 09:24:09;;;;;;;2.00;1.30;;;16.50;99.90;;;;;;5009863;28;20502;-74
2023/05/05 09:26:37;;;;;;;1.20;1.20;;;16.60;99.90;;;;;;5010654;28;20494;-74
2023/05/05 09:29:06;;;;;;;1.53;1.43;;;16.70;99.90;;;;;;5011074;28;20473;-73
2023/05/05 09:31:34;;;;;;;2.00;1.90;;;16.90;99.90;;;;;;5015783;28;20714;-74
2023/05/05 09:34:03;;;;;;;1.07;1.07;;;17.00;99.90;;;;;;5016359;28;20636;-75
2023/05/05 09:36:43;;;;;;;1.00;1.00;;;17.20;99.90;;;;;;5016732;28;20486;-74
2023/05/05 09:39:10;;;;;;;1.87;1.77;;;17.30;99.90;;;;;;5016848;28;20461;-73
2023/05/05 09:41:38;;;;;;;1.83;1.73;;;17.40;99.90;;;;;;5016822;28;20552;-74
2023/05/05 09:44:06;;;;;;;1.80;1.70;;;17.40;99.90;;;;;;5016691;28;20486;-74
2023/05/05 09:46:33;;;;;;;1.20;1.20;;;17.30;99.90;;;;;;5017026;28;20457;-74
2023/05/05 09:49:12;;;;;;;2.27;2.17;;;17.20;99.90;;;;;;5016969;28;20461;-74
2023/05/05 09:51:39;;;;;;;1.27;1.17;;;17.30;99.90;;;;;;5017185;28;20461;-75
2023/05/05 09:54:06;;;;;;;1.67;1.57;;;17.40;99.90;;;;;;5016391;28;20931;-74
2023/05/05 09:56:40;;;;;;;1.80;1.80;;;17.60;99.90;;;;;;5016410;28;21043;-74
2023/05/05 09:59:09;;;;;;;1.90;1.53;;;17.80;99.90;;;;;;5017027;28;20493;-75
2023/05/05 10:01:36;;;;;;;1.07;1.07;;;17.80;99.90;;;;;;5008148;28;20931;-75
2023/05/05 10:04:03;;;;;;;0.87;0.87;;;17.90;99.90;;;;;;4996573;28;20479;-74
2023/05/05 10:06:45;;;;;;;1.80;1.70;;;17.80;99.90;;;;;;4997306;28;20462;-75
2023/05/05 10:09:12;;;;;;;1.53;1.53;;;17.90;99.90;;;;;;4996681;28;20538;-73
2023/05/05 10:11:41;;;;;;;2.00;1.87;;;18.00;99.90;;;;;;4997165;28;20473;-74
2023/05/05 10:14:12;;;;;;;2.00;1.83;;;18.00;99.90;;;;;;4996834;28;20521;-74
2023/05/05 10:16:43;;;;;;;1.90;1.57;;;17.90;99.90;;;;;;4997342;28;20490;-75
2023/05/05 10:19:13;;;;;;;2.57;1.50;;;17.90;99.90;;;;;;4997113;28;20966;-75
2023/05/05 10:21:41;;;;;;;1.00;1.00;;;18.00;99.90;;;;;;4997535;28;20467;-75
2023/05/05 10:24:11;;;;;;;2.77;2.00;;;17.90;99.90;;;;;;4996473;28;20487;-74
2023/05/05 10:26:42;;;;;;;1.40;1.40;;;17.80;99.90;;;;;;4997594;28;20851;-75
2023/05/05 10:29:17;;;;;;;1.47;1.47;;;17.80;99.90;;;;;;4996953;28;20462;-72
2023/05/05 10:31:47;;;;;;;1.53;1.43;;;17.70;99.90;;;;;;4997565;28;20517;-75
2023/05/05 10:34:21;;;;;;;1.47;1.37;;;17.70;99.90;;;;;;4997429;28;20955;-75
2023/05/05 10:36:48;;;;;;;1.50;1.40;;;17.70;99.90;;;;;;4996794;28;21035;-74
2023/05/05 10:39:18;;;;;;;1.33;1.23;;;17.70;99.90;;;;;;4996823;28;20581;-74
2023/05/05 10:41:46;;;;;;;1.70;1.70;;;17.80;99.90;;;;;;4995361;28;20466;-73
2023/05/05 10:44:15;;;;;;;1.73;1.73;;;17.70;99.90;;;;;;4992590;28;20686;-75
2023/05/05 10:46:43;;;;;;;3.40;3.20;;;17.70;99.90;;;;;;4994919;28;20467;-74
2023/05/05 10:49:22;;;;;;;2.60;2.40;;;17.80;99.90;;;;;;4994798;28;20474;-74
2023/05/05 10:51:57;;;;;;;2.53;2.17;;;17.70;99.90;;;;;;4993921;28;20463;-75
2023/05/05 10:54:32;;;;;;;0.97;0.97;;;17.70;99.90;;;;;;4993200;28;20554;-76
2023/05/05 10:57:01;;;;;;;1.40;1.40;;;17.70;99.90;;;;;;4994032;28;20506;-75
2023/05/05 10:59:42;;;;;;;1.57;1.57;;;17.60;99.90;;;;;;4995277;28;20916;-75
2023/05/05 11:02:22;;;;;;;2.63;1.80;;;17.60;99.90;;;;;;5007322;28;20466;-74
2023/05/05 11:05:16;;;;;;;1.80;1.80;;;17.60;99.90;;;;;;5014378;28;20505;-75
2023/05/05 11:07:43;;;;;;;1.97;1.87;;;17.60;99.90;;;;;;5014291;28;20494;-75
2023/05/05 11:10:12;;;;;;;1.77;1.67;;;17.60;99.90;;;;;;5012458;28;20809;-74
2023/05/05 11:13:19;;;;;;;1.40;1.40;;;17.70;99.90;;;;;;5012687;28;20480;-75
2023/05/05 11:15:48;;;;;;;1.23;1.23;;;17.90;99.90;;;;;;5012863;28;20490;-75
2023/05/05 11:18:37;;;;;;;2.43;1.40;;;18.00;99.90;;;;;;5012713;28;20478;-75
2023/05/05 11:21:15;;;;;;;3.23;1.63;;;18.20;99.90;;;;;;5012817;28;20462;-74
2023/05/05 11:23:44;;;;;;;1.63;1.63;;;18.40;99.90;;;;;;5012101;28;20485;-74
2023/05/05 11:26:12;;;;;;;2.13;2.03;;;18.50;99.90;;;;;;5012101;28;20472;-75
2023/05/05 11:28:55;;;;;;;1.73;1.63;;;18.50;99.90;;;;;;5012073;28;20462;-75
2023/05/05 11:31:24;;;;;;;1.80;1.70;;;18.60;99.90;;;;;;5010907;28;20462;-75
2023/05/05 11:33:51;;;;;;;1.97;1.53;;;18.60;99.90;;;;;;5013018;28;20482;-74
2023/05/05 11:36:20;;;;;;;0.93;0.93;;;18.70;99.90;;;;;;5012794;28;20485;-73
2023/05/05 11:39:06;;;;;;;1.67;1.60;;;18.70;99.90;;;;;;5012525;28;20493;-74
2023/05/05 11:42:01;;;;;;;1.93;1.73;;;18.70;99.90;;;;;;5012238;28;20541;-75
2023/05/05 11:44:32;;;;;;;1.40;1.37;;;19.00;99.90;;;;;;5011394;28;20597;-75
2023/05/05 11:47:30;;;;;;;1.43;1.27;;;19.10;99.90;;;;;;5012548;28;20977;-74
2023/05/05 11:49:57;;;;;;;3.63;1.67;;;19.40;99.90;;;;;;4979010;28;20546;-76
2023/05/05 11:52:26;;;;;;;2.10;2.00;;;19.50;99.90;;;;;;5013013;28;20469;-77
2023/05/05 11:54:53;;;;;;;1.53;1.33;;;19.50;99.10;;;;;;5017473;28;20488;-73
2023/05/05 11:57:27;;;;;;;1.10;1.10;;;19.50;98.60;;;;;;5019745;28;20490;-73
2023/05/05 11:59:56;;;;;;;0.87;0.87;;;19.50;98.30;;;;;;5020507;28;20461;-73
2023/05/05 12:02:24;;;;;;;1.13;1.13;;;19.30;97.40;;;;;;5015713;28;20466;-73
2023/05/05 12:04:52;;;;;;;0.97;0.97;;;19.20;97.10;;;;;;5018277;28;20557;-73
2023/05/05 12:07:21;;;;;;;1.10;1.10;;;19.20;97.40;;;;;;5019421;28;20485;-72
2023/05/05 12:09:49;;;;;;;1.20;1.20;;;19.10;97.00;;;;;;5019544;28;20474;-73
2023/05/05 12:12:17;;;;;;;2.30;1.87;;;19.00;96.90;;;;;;5019697;28;20504;-73
2023/05/05 12:14:50;;;;;;;1.40;1.40;;;19.00;97.00;;;;;;5018147;28;20494;-73
2023/05/05 12:17:18;;;;;;;1.47;1.47;;;18.90;97.00;;;;;;5018902;28;20496;-73
2023/05/05 12:19:46;;;;;;;1.53;1.50;;;18.90;96.90;;;;;;5018642;28;20462;-73
2023/05/05 12:22:20;;;;;;;1.13;1.13;;;18.90;97.10;;;;;;5018505;28;20461;-73
2023/05/05 12:24:57;;;;;;;1.80;1.80;;;18.90;97.00;;;;;;5014005;28;20482;-75
2023/05/05 12:27:25;;;;;;;1.37;1.20;;;18.70;96.70;;;;;;5012390;28;20539;-77
2023/05/05 12:29:53;;;;;;;1.70;1.20;;;18.60;97.30;;;;;;5011965;28;20466;-74
2023/05/05 12:32:21;;;;;;;2.57;2.37;;;18.50;97.40;;;;;;5012279;28;20589;-76
2023/05/05 12:34:52;;;;;;;1.10;0.97;;;18.50;97.90;;;;;;5011852;28;20482;-76
2023/05/05 12:37:21;;;;;;;0.87;0.87;;;18.30;98.50;;;;;;5012092;28;20482;-76
2023/05/05 12:39:49;;;;;;;1.93;1.83;;;18.20;99.30;;;;;;5011186;28;20462;-76
2023/05/05 12:42:16;;;;;;;1.77;1.70;;;18.20;99.00;;;;;;5012311;28;20470;-76
2023/05/05 12:44:43;;;;;;;1.70;1.60;;;18.10;98.70;;;;;;5011022;28;20485;-74
2023/05/05 12:47:12;;;;;;;1.17;1.07;;;18.10;99.40;;;;;;5011776;28;21009;-74
2023/05/05 12:49:46;;;;;;;1.07;1.07;;;18.10;99.00;;;;;;5011861;28;20532;-74
2023/05/05 12:52:13;;;;;;;1.90;1.20;;;18.10;99.10;;;;;;5011923;28;20473;-72
2023/05/05 12:54:53;;;;;;;1.23;1.23;;;18.00;98.50;;;;;;5010930;28;20520;-74
2023/05/05 12:57:20;;;;;;;1.10;1.10;;;18.10;98.90;;;;;;5011750;28;20543;-72
2023/05/05 12:59:47;;;;;;;1.13;1.13;;;18.10;99.20;;;;;;5011313;28;20466;-74
2023/05/05 13:02:15;;;;;;;1.20;1.03;;;18.20;99.50;;;;;;5010504;28;20839;-74
2023/05/05 13:04:50;;;;;;;1.50;1.50;;;18.20;99.10;;;;;;5010708;28;20482;-74
2023/05/05 13:07:18;;;;;;;1.27;1.27;;;18.20;99.30;;;;;;5011937;28;20526;-72
2023/05/05 13:09:45;;;;;;;3.37;1.50;;;18.20;99.00;;;;;;5011507;28;20485;-73
2023/05/05 13:12:14;;;;;;;1.30;1.30;;;18.20;99.10;;;;;;5011874;28;20605;-74
2023/05/05 13:14:41;;;;;;;1.57;1.47;;;18.20;99.60;;;;;;5010420;28;20490;-74
2023/05/05 13:17:08;;;;;;;1.40;1.40;;;18.20;99.90;;;;;;5011618;28;20556;-74
2023/05/05 13:19:40;;;;;;;1.50;1.03;;;18.10;99.90;;;;;;5012101;28;20466;-75
2023/05/05 13:22:08;;;;;;;5.00;1.13;;;18.10;99.90;;;;;;5012197;28;20466;-75
2023/05/05 13:24:35;;;;;;;2.70;1.20;;;18.10;99.90;;;;;;5010471;28;20876;-74
2023/05/05 13:27:02;;;;;;;1.53;1.43;;;18.10;99.90;;;;;;5012123;28;20462;-75
2023/05/05 13:29:31;;;;;;;1.13;1.00;;;18.10;99.90;;;;;;5011287;28;20898;-74
2023/05/05 13:31:59;;;;;;;1.77;1.70;;;18.20;99.90;;;;;;5011747;28;20465;-75
2023/05/05 13:34:25;;;;;;;1.97;1.87;;;18.30;99.90;;;;;;5010668;28;20490;-74
2023/05/05 13:36:52;;;;;;;1.60;1.50;;;18.40;99.90;;;;;;5012037;28;20496;-75
2023/05/05 13:39:19;;;;;;;1.07;1.07;;;18.50;99.90;;;;;;5010732;28;20496;-75
2023/05/05 13:41:46;;;;;;;0.83;0.83;;;18.50;99.90;;;;;;5011381;28;20953;-74
2023/05/05 13:44:13;;;;;;;7.50;1.50;;;18.60;99.90;;;;;;5009793;28;20824;-75
2023/05/05 13:46:41;;;;;;;1.30;1.30;;;18.70;99.90;;;;;;5011390;28;20815;-75
2023/05/05 13:49:08;;;;;;;1.00;1.00;;;18.70;99.90;;;;;;5010803;28;20887;-74
2023/05/05 13:51:35;;;;;;;3.30;1.10;;;18.70;99.90;;;;;;5011007;28;20465;-75
2023/05/05 13:54:02;;;;;;;1.20;1.20;;;18.70;99.90;;;;;;5010266;28;21021;-75
2023/05/05 13:56:29;;;;;;;1.47;1.47;;;18.70;99.90;;;;;;5010411;28;20609;-75
2023/05/05 13:58:56;;;;;;;1.20;1.20;;;18.70;99.90;;;;;;5010241;28;20468;-75
2023/05/05 14:01:23;;;;;;;1.30;1.30;;;18.60;99.90;;;;;;5004242;28;20789;-75
2023/05/05 14:03:51;;;;;;;1.07;1.07;;;18.60;99.90;;;;;;4999507;28;20488;-76
2023/05/05 14:06:18;;;;;;;1.10;1.10;;;18.60;99.90;;;;;;5011239;28;20461;-75
2023/05/05 14:08:45;;;;;;;1.57;1.50;;;18.70;99.90;;;;;;5010999;28;20548;-75
2023/05/05 14:11:12;;;;;;;2.23;2.23;;;18.80;99.90;;;;;;5010729;28;20462;-76
2023/05/05 14:13:39;;;;;;;2.00;2.00;;;18.80;99.90;;;;;;5010100;28;20664;-75
2023/05/05 14:16:06;;;;;;;1.33;1.33;;;18.90;99.90;;;;;;5012470;28;20508;-75
2023/05/05 14:18:33;;;;;;;1.10;1.10;;;18.90;99.90;;;;;;5016828;28;20512;-75
2023/05/05 14:21:01;;;;;;;1.20;1.20;;;18.70;99.90;;;;;;5016849;28;20813;-75
2023/05/05 14:23:27;;;;;;;1.47;1.40;;;18.50;99.90;;;;;;5014939;28;20482;-74
2023/05/05 14:25:54;;;;;;;1.37;1.37;;;18.40;99.90;;;;;;5014771;28;20925;-74
2023/05/05 14:28:21;;;;;;;1.70;1.63;;;18.30;99.90;;;;;;5014375;28;20468;-75
2023/05/05 14:30:48;;;;;;;0.87;0.87;;;18.30;99.90;;;;;;5015258;28;20484;-75
2023/05/05 14:33:15;;;;;;;0.90;0.90;;;18.20;99.90;;;;;;5014540;28;20482;-75
2023/05/05 14:35:42;;;;;;;1.73;1.30;;;18.10;99.90;;;;;;5014419;28;20492;-75
2023/05/05 14:38:10;;;;;;;0.90;0.90;;;18.10;99.90;;;;;;5014513;28;20490;-73
2023/05/05 14:40:37;;;;;;;1.50;1.50;;;18.10;99.90;;;;;;5013858;28;20577;-73
2023/05/05 14:43:03;;;;;;;1.03;1.03;;;18.00;99.90;;;;;;5013771;28;20835;-76
2023/05/05 14:45:31;;;;;;;1.80;1.47;;;17.80;99.90;;;;;;5013924;28;20845;-75
2023/05/05 14:47:58;;;;;;;1.70;1.57;;;17.80;99.90;;;;;;5014596;28;20901;-74
2023/05/05 14:50:25;;;;;;;1.10;1.10;;;17.60;99.90;;;;;;5014032;28;20553;-75
2023/05/05 14:52:51;;;;;;;1.67;1.67;;;17.60;99.90;;;;;;5014533;28;20682;-74
2023/05/05 14:55:19;;;;;;;0.87;0.87;;;17.50;99.90;;;;;;5013403;28;20500;-75
2023/05/05 14:57:46;;;;;;;5.40;1.27;;;17.40;99.90;;;;;;5014252;28;20493;-76
2023/05/05 15:00:14;;;;;;;2.60;1.30;;;17.40;99.90;;;;;;5014434;28;20497;-75
2023/05/05 15:02:40;;;;;;;1.13;1.13;;;17.30;99.90;;;;;;5004159;28;20462;-75
2023/05/05 15:05:08;;;;;;;3.30;1.70;;;17.30;99.90;;;;;;5013706;28;20490;-74
2023/05/05 15:07:35;;;;;;;1.27;0.93;;;17.20;99.90;;;;;;5014225;28;20556;-75
2023/05/05 15:10:01;;;;;;;1.30;1.20;;;17.00;99.90;;;;;;5013484;28;20477;-74
2023/05/05 15:12:29;;;;;;;1.17;1.17;;;16.90;99.90;;;;;;5014047;28;20462;-72
2023/05/05 15:14:56;;;;;;;0.97;0.97;;;16.80;99.90;;;;;;5013012;28;20494;-75
2023/05/05 15:17:23;;;;;;;0.93;0.93;;;16.70;99.90;;;;;;5014331;28;20490;-75
2023/05/05 15:19:50;;;;;;;2.00;1.67;;;16.60;99.90;;;;;;5014031;28;20472;-76
2023/05/05 15:22:17;;;;;;;1.27;1.17;;;16.60;99.90;;;;;;5014172;28;20484;-75
2023/05/05 15:24:43;;;;;;;1.07;1.07;;;16.60;99.90;;;;;;5012944;28;20505;-75
2023/05/05 15:27:10;;;;;;;3.90;1.60;;;16.60;99.90;;;;;;5013901;28;20968;-74
2023/05/05 15:29:38;;;;;;;2.10;1.17;;;16.70;99.90;;;;;;5012599;28;20464;-75
2023/05/05 15:32:05;;;;;;;1.70;1.70;;;16.70;99.90;;;;;;5013982;28;20458;-75
2023/05/05 15:34:32;;;;;;;1.80;1.70;;;16.70;99.90;;;;;;5013020;28;20564;-75
2023/05/05 15:36:59;;;;;;;2.80;1.80;;;16.80;99.90;;;;;;5014564;28;20486;-75
2023/05/05 15:39:25;;;;;;;2.93;2.10;;;16.80;99.90;;;;;;5025995;28;20493;-73
2023/05/05 15:41:52;;;;;;;1.50;1.50;;;16.80;99.90;;;;;;5023841;28;20458;-73
2023/05/05 15:44:19;;;;;;;4.93;1.27;;;16.80;99.90;;;;;;5020806;28;20486;-74
2023/05/05 15:46:47;;;;;;;1.47;1.37;;;16.80;99.90;;;;;;5015862;28;20550;-75
2023/05/05 15:49:14;;;;;;;1.97;1.77;;;16.80;99.90;;;;;;5012829;28;20477;-74
2023/05/05 15:51:40;;;;;;;1.10;1.10;;;16.80;99.90;;;;;;5012698;28;20473;-73
2023/05/05 15:54:07;;;;;;;2.77;2.63;;;16.70;99.90;;;;;;5012262;28;20614;-74
2023/05/05 15:56:36;;;;;;;1.40;1.30;;;16.70;99.90;;;;;;5012192;28;20462;-74
2023/05/05 15:59:03;;;;;;;1.30;1.30;;;16.70;99.90;;;;;;5012783;28;20486;-74
2023/05/05 16:01:29;;;;;;;1.60;1.60;;;16.70;99.90;;;;;;5011223;28;20469;-74
2023/05/05 16:03:58;;;;;;;2.67;1.70;;;16.80;99.90;;;;;;5011401;28;20489;-75
2023/05/05 16:06:26;;;;;;;1.80;1.80;;;16.80;99.90;;;;;;5012325;28;20561;-75
2023/05/05 16:08:52;;;;;;;0.93;0.90;;;16.80;99.90;;;;;;5012298;28;20462;-75
2023/05/05 16:11:20;;;;;;;2.50;1.50;;;16.80;99.90;;;;;;5011789;28;20481;-74
2023/05/05 16:13:46;;;;;;;1.23;1.23;;;16.80;99.90;;;;;;5011852;28;20501;-71
2023/05/05 16:16:13;;;;;;;5.47;1.87;;;16.80;99.90;;;;;;5012548;28;20473;-75
2023/05/05 16:18:40;;;;;;;1.93;1.87;;;16.80;99.90;;;;;;5012261;28;21040;-71
2023/05/05 16:21:08;;;;;;;1.40;1.30;;;16.80;99.90;;;;;;5012432;28;20489;-71
2023/05/05 16:23:34;;;;;;;0.97;0.97;;;16.90;99.90;;;;;;5011791;28;20497;-72
2023/05/05 16:26:02;;;;;;;1.77;1.67;;;16.90;99.90;;;;;;5011932;28;20466;-73
2023/05/05 16:28:29;;;;;;;2.93;1.27;;;17.00;99.90;;;;;;5011883;28;20462;-74
2023/05/05 16:30:56;;;;;;;3.03;1.60;;;16.90;99.90;;;;;;5012147;28;20466;-72
2023/05/05 16:33:23;;;;;;;2.00;1.83;;;16.90;99.90;;;;;;5011746;28;20494;-72
2023/05/05 16:35:50;;;;;;;1.13;1.10;;;16.80;99.90;;;;;;5012545;28;20497;-72
2023/05/05 16:38:18;;;;;;;3.80;2.20;;;16.80;99.90;;;;;;5012223;28;20493;-72
2023/05/05 16:40:44;;;;;;;1.13;1.13;;;16.80;99.90;;;;;;5011105;28;20470;-72
2023/05/05 16:43:11;;;;;;;2.60;1.10;;;16.80;99.90;;;;;;5011828;28;20529;-72
2023/05/05 16:45:38;;;;;;;4.43;2.00;;;16.70;99.90;;;;;;5011667;28;20463;-73
2023/05/05 16:48:05;;;;;;;3.90;2.33;;;16.70;99.90;;;;;;5012044;28;20464;-72
2023/05/05 16:50:32;;;;;;;1.07;1.07;;;16.70;99.90;;;;;;5012249;28;20466;-71
2023/05/05 16:52:59;;;;;;;1.67;1.57;;;16.60;99.90;;;;;;5011820;28;20904;-71
2023/05/05 16:55:27;;;;;;;1.43;1.37;;;16.60;99.90;;;;;;5011149;28;20521;-71